Time;durP1;ratioP1;P1;durP2;ratioP2;P2;SDS_P1;SDS_P2;PMS_P1;PMS_P2;Temp;Humidity;BMP_temperature;BMP_pressure;BME280_temperature;BME280_humidity;BME280_pressure;Samples;Min_cycle;Max_cycle;Signal;HPM_P1;HPM_P2
2021/08/11 00:00:12;;;;;;;141.05;25.10;;;12.50;99.90;;;;;;5043766;28;20041;-68
2021/08/11 00:02:38;;;;;;;178.77;26.25;;;12.50;99.90;;;;;;5043415;28;20371;-67
2021/08/11 00:05:04;;;;;;;137.55;25.05;;;12.40;99.90;;;;;;5043621;28;20451;-68
2021/08/11 00:07:30;;;;;;;94.30;24.10;;;12.40;99.90;;;;;;5043245;28;20044;-68
2021/08/11 00:09:55;;;;;;;156.13;25.48;;;12.40;99.90;;;;;;5042422;28;20121;-68
2021/08/11 00:12:21;;;;;;;148.55;25.92;;;12.30;99.90;;;;;;5043275;28;20476;-69
2021/08/11 00:14:46;;;;;;;202.65;27.13;;;12.30;99.90;;;;;;5039664;28;20032;-68
2021/08/11 00:17:12;;;;;;;260.40;28.60;;;12.30;99.90;;;;;;5040682;28;20025;-68
2021/08/11 00:19:38;;;;;;;263.70;27.30;;;12.30;99.90;;;;;;5040829;28;20080;-67
2021/08/11 00:22:04;;;;;;;159.77;25.33;;;12.30;99.90;;;;;;5043165;28;20031;-67
2021/08/11 00:24:30;;;;;;;194.48;26.80;;;12.30;99.90;;;;;;5041222;28;21892;-68
2021/08/11 00:26:56;;;;;;;175.48;27.55;;;12.20;99.90;;;;;;5042994;28;20063;-68
2021/08/11 00:29:21;;;;;;;198.13;27.02;;;12.20;99.90;;;;;;5040912;28;20142;-68
2021/08/11 00:31:47;;;;;;;131.05;24.80;;;12.20;99.90;;;;;;5041557;28;20107;-69
2021/08/11 00:34:13;;;;;;;139.10;25.08;;;12.10;99.90;;;;;;5028244;28;20355;-68
2021/08/11 00:36:39;;;;;;;152.75;24.33;;;12.10;99.90;;;;;;5043440;28;20114;-67
2021/08/11 00:39:04;;;;;;;138.98;24.92;;;12.10;99.90;;;;;;5043408;28;20025;-68
2021/08/11 00:41:31;;;;;;;181.90;26.75;;;12.10;99.90;;;;;;5041326;28;20059;-68
2021/08/11 00:43:56;;;;;;;292.83;27.88;;;12.10;99.90;;;;;;5042524;28;20178;-68
2021/08/11 00:46:22;;;;;;;225.50;26.15;;;12.10;99.90;;;;;;5042516;28;20132;-68
2021/08/11 00:48:47;;;;;;;249.50;27.35;;;12.10;99.90;;;;;;5042977;28;20045;-68
2021/08/11 00:51:14;;;;;;;141.23;23.67;;;12.10;99.90;;;;;;5042961;28;20082;-68
2021/08/11 00:53:40;;;;;;;170.25;22.80;;;12.10;99.90;;;;;;5036149;28;20029;-69
2021/08/11 00:56:07;;;;;;;145.52;24.75;;;12.00;99.90;;;;;;5037126;28;20048;-69
2021/08/11 00:58:35;;;;;;;148.02;23.67;;;12.00;99.90;;;;;;5042688;28;20054;-68
2021/08/11 01:01:02;;;;;;;104.13;21.63;;;11.90;99.90;;;;;;5042597;28;20434;-68
2021/08/11 01:03:29;;;;;;;144.23;23.38;;;11.90;99.90;;;;;;5043019;28;20480;-68
2021/08/11 01:05:58;;;;;;;187.75;24.70;;;11.80;99.90;;;;;;5042753;28;20060;-68
2021/08/11 01:08:24;;;;;;;260.58;25.15;;;11.80;99.90;;;;;;5042933;28;20162;-68
2021/08/11 01:10:51;;;;;;;143.52;23.60;;;11.80;99.90;;;;;;5049045;28;20048;-69
2021/08/11 01:13:17;;;;;;;154.50;23.55;;;11.80;99.90;;;;;;5042677;28;20048;-68
2021/08/11 01:15:46;;;;;;;103.22;21.40;;;11.80;99.90;;;;;;5042977;28;20348;-68
2021/08/11 01:18:16;;;;;;;206.43;23.98;;;11.80;99.90;;;;;;5047778;28;20037;-68
2021/08/11 01:20:57;;;;;;;135.15;22.63;;;11.70;99.90;;;;;;5042408;28;20033;-67
2021/08/11 01:23:29;;;;;;;147.77;22.90;;;11.80;99.90;;;;;;5045929;28;20079;-68
2021/08/11 01:26:13;;;;;;;125.28;22.67;;;11.70;99.90;;;;;;5045995;28;20057;-69
2021/08/11 01:28:51;;;;;;;122.25;22.83;;;11.70;99.90;;;;;;5045694;28;20055;-68
2021/08/11 01:31:19;;;;;;;125.00;23.08;;;11.60;99.90;;;;;;5044090;28;20048;-68
2021/08/11 01:33:56;;;;;;;148.65;22.65;;;11.60;99.90;;;;;;5046511;28;20032;-68
2021/08/11 01:36:41;;;;;;;146.52;23.50;;;11.50;99.90;;;;;;5043239;28;20125;-68
2021/08/11 01:39:39;;;;;;;124.60;23.42;;;11.50;99.90;;;;;;5046913;28;20025;-68
2021/08/11 01:42:10;;;;;;;133.40;22.40;;;11.50;99.90;;;;;;5035132;28;20067;-68
2021/08/11 01:44:41;;;;;;;;;;;11.50;99.90;;;;;;5046803;28;20199;-68
2021/08/11 01:47:12;;;;;;;122.55;22.38;;;11.50;99.90;;;;;;5046201;28;19908;-68
2021/08/11 01:49:38;;;;;;;;;;;11.50;99.90;;;;;;5046904;28;20028;-68
2021/08/11 01:52:04;;;;;;;82.78;20.90;;;11.40;99.90;;;;;;5042021;28;19955;-68
2021/08/11 01:54:33;;;;;;;114.18;22.38;;;11.40;99.90;;;;;;5045869;28;20021;-68
2021/08/11 01:56:58;;;;;;;110.20;22.95;;;11.40;99.90;;;;;;5044706;28;20056;-68
2021/08/11 01:59:25;;;;;;;103.32;22.98;;;11.30;99.90;;;;;;5046951;28;20068;-68
2021/08/11 02:01:51;;;;;;;121.00;24.35;;;11.30;99.90;;;;;;5046240;28;20028;-68
2021/08/11 02:04:18;;;;;;;139.23;24.98;;;11.40;99.90;;;;;;5045825;28;20086;-68
2021/08/11 02:06:45;;;;;;;276.55;28.10;;;11.30;99.90;;;;;;5037899;28;20029;-68
2021/08/11 02:09:14;;;;;;;295.38;26.80;;;11.30;99.90;;;;;;5028382;28;20047;-68
2021/08/11 02:11:41;;;;;;;224.73;24.30;;;11.30;99.90;;;;;;5045608;28;20029;-67
2021/08/11 02:14:10;;;;;;;281.33;26.80;;;11.30;99.90;;;;;;5046076;28;20033;-68
2021/08/11 02:16:40;;;;;;;249.75;25.17;;;11.40;99.90;;;;;;5043794;28;20135;-69
2021/08/11 02:19:06;;;;;;;268.05;25.95;;;11.40;99.90;;;;;;5044795;28;20481;-68
2021/08/11 02:21:32;;;;;;;160.05;24.63;;;11.30;99.90;;;;;;5045634;28;20024;-68
2021/08/11 02:23:58;;;;;;;250.25;25.63;;;11.30;99.90;;;;;;5046070;28;20036;-68
2021/08/11 02:26:47;;;;;;;187.30;24.02;;;11.30;99.90;;;;;;5044756;28;20434;-68
2021/08/11 02:29:31;;;;;;;195.55;24.83;;;11.30;99.90;;;;;;5033038;28;20037;-67
2021/08/11 02:32:18;;;;;;;174.45;24.17;;;11.30;99.90;;;;;;5045389;28;20025;-68
2021/08/11 02:35:10;;;;;;;162.88;23.75;;;11.20;99.90;;;;;;5041574;28;20032;-68
2021/08/11 02:37:55;;;;;;;110.78;22.38;;;11.20;99.90;;;;;;5036046;28;20059;-68
2021/08/11 02:40:39;;;;;;;143.68;24.77;;;11.10;99.90;;;;;;5041803;28;20327;-69
2021/08/11 02:43:10;;;;;;;150.95;23.70;;;11.10;99.90;;;;;;5044930;28;20021;-68
2021/08/11 02:45:40;;;;;;;118.50;23.85;;;11.10;99.90;;;;;;5044892;28;20503;-69
2021/08/11 02:48:09;;;;;;;185.32;23.42;;;11.10;99.90;;;;;;5044773;28;20051;-68
2021/08/11 02:50:35;;;;;;;110.60;22.15;;;11.00;99.90;;;;;;5031894;28;20078;-68
2021/08/11 02:53:02;;;;;;;107.18;22.92;;;10.90;99.90;;;;;;5045756;28;20116;-68
2021/08/11 02:55:28;;;;;;;134.95;22.95;;;10.80;99.90;;;;;;5044302;28;20360;-68
2021/08/11 02:57:54;;;;;;;109.40;22.77;;;10.80;99.90;;;;;;5044509;28;20454;-68
2021/08/11 03:00:20;;;;;;;91.25;22.65;;;10.70;99.90;;;;;;5044850;28;20033;-67
2021/08/11 03:02:46;;;;;;;82.32;23.30;;;10.70;99.90;;;;;;5043428;28;20356;-68
2021/08/11 03:05:12;;;;;;;130.95;23.20;;;10.70;99.90;;;;;;5044577;28;20029;-68
2021/08/11 03:07:38;;;;;;;85.55;23.67;;;10.60;99.90;;;;;;5044777;28;20302;-69
2021/08/11 03:10:04;;;;;;;146.82;24.85;;;10.60;99.90;;;;;;5044545;28;20037;-68
2021/08/11 03:12:30;;;;;;;100.13;25.55;;;10.60;99.90;;;;;;5042882;28;20489;-68
2021/08/11 03:14:57;;;;;;;113.30;26.67;;;10.50;99.90;;;;;;5037696;28;20056;-68
2021/08/11 03:17:28;;;;;;;80.93;24.92;;;10.50;99.90;;;;;;5040245;28;20032;-68
2021/08/11 03:19:54;;;;;;;112.28;27.90;;;10.50;99.90;;;;;;5043079;28;20051;-68
2021/08/11 03:22:19;;;;;;;82.53;25.33;;;10.50;99.90;;;;;;5042730;28;20045;-68
2021/08/11 03:24:45;;;;;;;112.60;28.98;;;10.50;99.90;;;;;;5047682;28;20457;-68
2021/08/11 03:27:10;;;;;;;96.93;27.77;;;10.60;99.90;;;;;;5043911;28;20025;-68
2021/08/11 03:29:36;;;;;;;99.13;27.38;;;10.50;99.90;;;;;;5045078;28;20044;-68
2021/08/11 03:32:02;;;;;;;111.70;28.58;;;10.50;99.90;;;;;;5044193;28;20032;-68
2021/08/11 03:34:28;;;;;;;119.00;29.38;;;10.50;99.90;;;;;;5044232;28;20219;-68
2021/08/11 03:36:55;;;;;;;86.45;26.05;;;10.50;99.90;;;;;;5048787;28;20055;-68
2021/08/11 03:39:20;;;;;;;105.32;29.88;;;10.50;99.90;;;;;;5044415;28;20017;-68
2021/08/11 03:41:46;;;;;;;102.40;27.80;;;10.50;99.90;;;;;;5043736;28;20428;-68
2021/08/11 03:44:11;;;;;;;87.93;28.10;;;10.50;99.90;;;;;;5025520;28;20474;-67
2021/08/11 03:46:37;;;;;;;104.25;28.35;;;10.50;99.90;;;;;;5043439;28;20028;-68
2021/08/11 03:49:02;;;;;;;104.63;29.90;;;10.50;99.90;;;;;;5044102;28;20115;-69
2021/08/11 03:51:28;;;;;;;94.97;29.85;;;10.60;99.90;;;;;;5043626;28;20403;-68
2021/08/11 03:53:54;;;;;;;106.25;30.55;;;10.60;99.90;;;;;;5039623;28;20063;-68
2021/08/11 03:56:20;;;;;;;120.78;30.70;;;10.60;99.90;;;;;;5042200;28;20155;-68
2021/08/11 03:58:45;;;;;;;111.30;30.15;;;10.60;99.90;;;;;;5042762;28;20208;-68
2021/08/11 04:01:11;;;;;;;109.68;30.00;;;10.50;99.90;;;;;;5043416;28;20025;-68
2021/08/11 04:03:36;;;;;;;96.57;28.40;;;10.60;99.90;;;;;;5044212;28;20443;-68
2021/08/11 04:06:02;;;;;;;94.20;29.45;;;10.70;99.90;;;;;;5043648;28;20461;-68
2021/08/11 04:08:28;;;;;;;110.22;29.90;;;10.60;99.90;;;;;;5044322;28;20037;-69
2021/08/11 04:10:53;;;;;;;97.72;29.30;;;10.60;99.90;;;;;;5043517;28;20116;-69
2021/08/11 04:13:20;;;;;;;91.43;29.85;;;10.70;99.90;;;;;;5042860;28;20025;-68
2021/08/11 04:15:46;;;;;;;88.05;29.08;;;10.70;99.90;;;;;;5028208;28;20430;-68
2021/08/11 04:18:12;;;;;;;102.97;29.77;;;10.70;99.90;;;;;;5037978;28;20417;-68
2021/08/11 04:20:39;;;;;;;101.18;30.25;;;10.80;99.90;;;;;;5041925;28;20238;-68
2021/08/11 04:23:05;;;;;;;95.47;29.02;;;10.80;99.90;;;;;;5043669;28;20209;-68
2021/08/11 04:25:32;;;;;;;100.13;28.70;;;10.80;99.90;;;;;;5042248;28;20017;-68
2021/08/11 04:27:58;;;;;;;111.78;30.08;;;10.80;99.90;;;;;;5039131;28;20055;-68
2021/08/11 04:30:23;;;;;;;98.13;29.30;;;10.80;99.90;;;;;;5042468;28;20017;-68
2021/08/11 04:32:49;;;;;;;93.28;28.08;;;10.80;99.90;;;;;;5042926;28;20126;-68
2021/08/11 04:35:14;;;;;;;103.00;29.33;;;10.80;99.90;;;;;;5043052;28;20127;-68
2021/08/11 04:37:40;;;;;;;90.30;27.63;;;10.80;99.90;;;;;;5042745;28;20024;-68
2021/08/11 04:40:08;;;;;;;79.70;26.30;;;10.90;99.90;;;;;;5043742;28;20048;-68
2021/08/11 04:42:34;;;;;;;88.35;27.90;;;11.00;99.90;;;;;;5043121;28;20098;-68
2021/08/11 04:45:01;;;;;;;76.72;27.52;;;11.00;99.90;;;;;;5043497;28;20021;-68
2021/08/11 04:47:27;;;;;;;79.32;27.15;;;11.00;99.90;;;;;;5040024;28;20071;-69
2021/08/11 04:49:52;;;;;;;78.82;26.40;;;11.10;99.90;;;;;;5040210;28;20064;-68
2021/08/11 04:52:18;;;;;;;80.70;26.95;;;11.10;99.90;;;;;;5043359;28;20461;-68
2021/08/11 04:54:44;;;;;;;85.57;27.75;;;11.10;99.90;;;;;;5042777;28;20082;-67
2021/08/11 04:57:09;;;;;;;81.13;27.40;;;11.10;99.90;;;;;;5045931;28;20090;-68
2021/08/11 04:59:35;;;;;;;81.32;27.08;;;11.10;99.90;;;;;;5028609;28;20071;-68
2021/08/11 05:02:01;;;;;;;87.03;27.02;;;11.10;99.90;;;;;;5034449;28;20107;-67
2021/08/11 05:04:27;;;;;;;76.57;27.35;;;11.20;99.90;;;;;;5044786;28;20021;-68
2021/08/11 05:06:53;;;;;;;82.57;26.10;;;11.20;99.90;;;;;;5026039;28;20025;-67
2021/08/11 05:09:18;;;;;;;89.57;27.42;;;11.30;99.90;;;;;;5047150;28;20040;-69
2021/08/11 05:11:44;;;;;;;89.35;26.08;;;11.40;99.90;;;;;;5051989;28;20033;-69
2021/08/11 05:14:10;;;;;;;91.25;27.55;;;11.50;99.90;;;;;;5045069;28;20035;-68
2021/08/11 05:16:35;;;;;;;91.10;26.17;;;11.50;99.90;;;;;;5046619;28;20465;-68
2021/08/11 05:19:01;;;;;;;91.13;27.50;;;11.60;99.90;;;;;;5046149;28;20033;-68
2021/08/11 05:21:27;;;;;;;94.13;27.92;;;11.70;99.90;;;;;;5045943;28;20498;-68
2021/08/11 05:23:53;;;;;;;87.45;28.27;;;11.80;99.90;;;;;;5053260;28;20055;-68
2021/08/11 05:26:19;;;;;;;88.53;28.77;;;11.90;99.90;;;;;;5046192;28;20131;-68
2021/08/11 05:28:46;;;;;;;83.93;28.42;;;12.00;99.90;;;;;;5046497;28;20029;-68
2021/08/11 05:31:12;;;;;;;89.53;28.70;;;12.00;99.90;;;;;;5045161;28;20052;-68
2021/08/11 05:33:38;;;;;;;85.20;28.05;;;12.10;99.90;;;;;;5051685;28;20461;-68
2021/08/11 05:36:04;;;;;;;86.47;27.58;;;12.10;99.90;;;;;;5046443;28;20032;-69
2021/08/11 05:38:33;;;;;;;83.70;27.55;;;12.10;99.90;;;;;;5044504;28;20040;-68
2021/08/11 05:41:00;;;;;;;97.93;28.25;;;12.10;99.90;;;;;;5030585;28;20438;-70
2021/08/11 05:43:25;;;;;;;92.20;28.10;;;12.10;99.90;;;;;;5045681;28;20021;-68
2021/08/11 05:45:51;;;;;;;88.78;29.52;;;12.30;99.90;;;;;;5046086;28;20370;-69
2021/08/11 05:48:21;;;;;;;90.05;29.58;;;12.40;99.90;;;;;;5042928;28;20135;-69
2021/08/11 05:50:47;;;;;;;91.07;30.65;;;12.50;99.90;;;;;;5034041;28;20036;-67
2021/08/11 05:53:13;;;;;;;86.82;29.67;;;12.60;99.90;;;;;;5045589;28;20041;-69
2021/08/11 05:55:38;;;;;;;76.65;29.08;;;12.70;99.90;;;;;;5045523;28;20349;-68
2021/08/11 05:58:04;;;;;;;87.57;29.70;;;12.70;99.90;;;;;;5047222;28;20056;-68
2021/08/11 06:00:29;;;;;;;79.80;27.98;;;12.70;99.90;;;;;;5044935;28;20033;-67
2021/08/11 06:02:57;;;;;;;76.60;28.83;;;12.70;99.90;;;;;;5046408;28;20017;-68
2021/08/11 06:05:23;;;;;;;73.88;28.60;;;12.90;99.90;;;;;;5042999;28;20097;-68
2021/08/11 06:07:49;;;;;;;74.38;28.77;;;12.90;99.90;;;;;;5044841;28;20040;-68
2021/08/11 06:10:15;;;;;;;78.30;30.13;;;13.00;99.90;;;;;;5027361;28;20033;-68
2021/08/11 06:12:40;;;;;;;84.53;29.88;;;13.10;99.90;;;;;;5027225;28;20473;-69
2021/08/11 06:15:07;;;;;;;82.78;30.30;;;13.20;99.90;;;;;;5042303;28;20431;-68
2021/08/11 06:17:43;;;;;;;79.13;29.77;;;13.30;99.90;;;;;;5041318;28;20256;-68
2021/08/11 06:20:10;;;;;;;85.15;29.77;;;13.40;99.90;;;;;;5040193;28;20143;-68
2021/08/11 06:22:35;;;;;;;90.03;32.20;;;13.40;99.90;;;;;;5045616;28;20079;-68
2021/08/11 06:25:01;;;;;;;85.47;32.13;;;13.50;99.90;;;;;;5045392;28;20064;-69
2021/08/11 06:27:27;;;;;;;84.82;32.72;;;13.60;99.80;;;;;;5044413;28;20040;-69
2021/08/11 06:29:53;;;;;;;83.50;33.42;;;13.70;99.80;;;;;;5045636;28;20140;-69
2021/08/11 06:32:18;;;;;;;92.03;32.67;;;13.70;99.60;;;;;;5045994;28;20021;-68
2021/08/11 06:34:44;;;;;;;86.75;31.25;;;13.70;99.60;;;;;;5045475;28;20029;-68
2021/08/11 06:37:09;;;;;;;90.00;34.20;;;13.70;99.50;;;;;;5044338;28;20052;-68
2021/08/11 06:39:35;;;;;;;102.55;35.17;;;13.80;99.60;;;;;;5046508;28;20422;-68
2021/08/11 06:42:01;;;;;;;107.35;35.25;;;14.00;99.50;;;;;;5045086;28;20104;-68
2021/08/11 06:44:26;;;;;;;104.35;34.63;;;14.00;99.30;;;;;;5045205;28;20029;-68
2021/08/11 06:46:52;;;;;;;93.60;33.58;;;13.90;99.20;;;;;;5043915;28;20040;-68
2021/08/11 06:49:18;;;;;;;91.30;33.65;;;13.90;99.10;;;;;;5045379;28;20040;-68
2021/08/11 06:51:43;;;;;;;80.22;31.10;;;14.00;99.20;;;;;;5042657;28;20095;-68
2021/08/11 06:54:12;;;;;;;72.75;29.75;;;13.90;98.90;;;;;;5018586;28;20068;-68
2021/08/11 06:56:39;;;;;;;80.68;30.48;;;13.80;98.80;;;;;;5038448;28;20094;-69
2021/08/11 06:59:05;;;;;;;75.22;29.27;;;13.90;98.80;;;;;;5045155;28;20025;-68
2021/08/11 07:01:31;;;;;;;67.00;28.08;;;14.10;99.00;;;;;;5046308;28;20679;-68
2021/08/11 07:03:57;;;;;;;61.95;26.67;;;14.20;98.70;;;;;;5043526;28;20021;-68
2021/08/11 07:06:22;;;;;;;55.78;25.85;;;14.20;98.70;;;;;;5044105;28;20112;-68
2021/08/11 07:08:48;;;;;;;55.70;24.92;;;14.30;98.50;;;;;;5047925;28;20088;-69
2021/08/11 07:11:13;;;;;;;42.90;22.75;;;14.40;98.10;;;;;;5042305;28;20458;-68
2021/08/11 07:13:39;;;;;;;49.35;24.23;;;14.30;98.30;;;;;;5050734;28;20051;-68
2021/08/11 07:16:05;;;;;;;49.95;23.70;;;14.50;98.50;;;;;;5044044;28;20032;-69
2021/08/11 07:18:30;;;;;;;42.13;22.98;;;14.80;98.40;;;;;;5043765;28;20040;-69
2021/08/11 07:20:58;;;;;;;35.28;21.67;;;14.90;98.20;;;;;;5044554;28;20056;-68
2021/08/11 07:23:23;;;;;;;42.88;22.17;;;14.90;97.70;;;;;;5044724;28;20044;-69
2021/08/11 07:25:49;;;;;;;31.88;20.90;;;15.00;97.90;;;;;;5042748;28;20033;-70
2021/08/11 07:28:15;;;;;;;31.75;20.48;;;15.20;97.50;;;;;;5023027;28;20033;-68
2021/08/11 07:30:42;;;;;;;38.50;22.58;;;15.40;97.70;;;;;;5043694;28;20051;-69
2021/08/11 07:33:09;;;;;;;32.78;21.75;;;15.60;97.80;;;;;;5046005;28;20563;-69
2021/08/11 07:35:38;;;;;;;27.42;19.40;;;15.60;97.30;;;;;;5043933;28;20033;-69
2021/08/11 07:38:05;;;;;;;25.23;18.35;;;15.70;96.90;;;;;;5039144;28;20029;-69
2021/08/11 07:40:32;;;;;;;26.25;18.00;;;15.70;96.60;;;;;;5044604;28;20556;-69
2021/08/11 07:42:58;;;;;;;25.40;18.17;;;15.80;96.50;;;;;;5043522;28;20083;-69
2021/08/11 07:45:26;;;;;;;23.55;16.55;;;16.00;96.70;;;;;;5046257;28;20052;-68
2021/08/11 07:47:54;;;;;;;25.13;19.23;;;16.10;96.50;;;;;;5045828;28;20106;-69
2021/08/11 07:50:22;;;;;;;25.70;18.58;;;16.40;96.70;;;;;;5043153;28;20052;-70
2021/08/11 07:52:48;;;;;;;24.25;17.45;;;16.60;96.60;;;;;;5036560;28;20400;-68
2021/08/11 07:55:15;;;;;;;20.20;14.77;;;16.60;96.50;;;;;;5043362;28;20124;-69
2021/08/11 07:57:40;;;;;;;20.38;14.98;;;16.60;96.00;;;;;;5042859;28;20060;-69
2021/08/11 08:00:08;;;;;;;21.25;13.68;;;16.80;95.80;;;;;;5042347;28;20531;-70
2021/08/11 08:02:34;;;;;;;19.10;13.43;;;16.80;94.60;;;;;;5040022;28;20025;-70
2021/08/11 08:05:01;;;;;;;18.48;13.73;;;17.00;94.40;;;;;;5036183;28;20032;-69
2021/08/11 08:07:27;;;;;;;16.55;12.32;;;17.10;93.80;;;;;;5042330;28;20020;-70
2021/08/11 08:09:53;;;;;;;14.48;10.95;;;17.20;93.70;;;;;;5043505;28;20079;-69
2021/08/11 08:12:18;;;;;;;16.75;11.80;;;17.40;92.90;;;;;;5043714;28;20572;-70
2021/08/11 08:14:44;;;;;;;15.88;10.88;;;17.60;93.60;;;;;;5042950;28;20082;-69
2021/08/11 08:17:09;;;;;;;15.20;9.52;;;17.70;92.70;;;;;;5042201;28;20516;-69
2021/08/11 08:19:35;;;;;;;15.63;10.65;;;18.00;93.10;;;;;;5043836;28;20023;-69
2021/08/11 08:22:01;;;;;;;13.30;8.38;;;18.30;91.90;;;;;;5050153;28;20095;-69
2021/08/11 08:24:26;;;;;;;12.10;9.07;;;18.20;89.90;;;;;;5042227;28;20075;-68
2021/08/11 08:26:52;;;;;;;11.98;8.00;;;18.40;90.90;;;;;;5039364;28;20513;-69
2021/08/11 08:29:18;;;;;;;10.23;6.18;;;18.20;89.20;;;;;;5041197;28;20033;-68
2021/08/11 08:31:43;;;;;;;13.23;6.53;;;18.30;86.90;;;;;;5047528;28;20076;-69
2021/08/11 08:34:09;;;;;;;13.05;8.07;;;18.40;87.10;;;;;;5049692;28;20099;-68
2021/08/11 08:36:34;;;;;;;12.82;7.50;;;18.70;89.20;;;;;;5047340;28;20040;-70
2021/08/11 08:39:00;;;;;;;10.75;6.18;;;18.70;89.30;;;;;;5049034;28;20021;-69
2021/08/11 08:41:27;;;;;;;10.20;6.40;;;19.00;86.20;;;;;;5049154;28;20127;-70
2021/08/11 08:43:52;;;;;;;10.57;6.80;;;18.80;85.80;;;;;;5049624;28;20074;-71
2021/08/11 08:46:20;;;;;;;9.98;6.80;;;18.50;86.00;;;;;;5047885;28;20036;-68
2021/08/11 08:48:46;;;;;;;9.95;6.53;;;18.60;88.30;;;;;;5049673;28;20037;-69
2021/08/11 08:51:14;;;;;;;8.85;6.63;;;18.50;88.10;;;;;;5049878;28;20088;-69
2021/08/11 08:53:44;;;;;;;8.85;6.40;;;18.30;88.20;;;;;;5050195;28;20029;-70
2021/08/11 08:56:11;;;;;;;9.13;5.20;;;18.10;87.60;;;;;;5050092;28;20104;-69
2021/08/11 08:58:41;;;;;;;9.70;5.25;;;18.20;86.40;;;;;;5047788;28;20033;-69
2021/08/11 09:01:07;;;;;;;11.15;5.45;;;18.30;86.30;;;;;;5049422;28;20025;-69
2021/08/11 09:03:33;;;;;;;8.88;5.60;;;18.40;85.80;;;;;;5049443;28;20488;-69
2021/08/11 09:05:58;;;;;;;9.43;5.18;;;18.90;84.80;;;;;;5048889;28;20473;-69
2021/08/11 09:08:24;;;;;;;8.52;4.45;;;19.50;84.40;;;;;;5051311;28;20025;-69
2021/08/11 09:10:50;;;;;;;8.15;3.67;;;20.00;83.50;;;;;;5049921;28;20124;-68
2021/08/11 09:13:21;;;;;;;6.03;3.45;;;19.80;80.40;;;;;;5034401;28;20036;-69
2021/08/11 09:15:47;;;;;;;8.82;3.35;;;19.60;78.00;;;;;;5043537;28;20048;-69
2021/08/11 09:18:24;;;;;;;6.65;3.42;;;19.60;79.90;;;;;;5048401;28;20052;-69
2021/08/11 09:20:58;;;;;;;6.75;2.60;;;19.50;80.50;;;;;;5049226;28;20100;-69
2021/08/11 09:23:44;;;;;;;6.45;2.85;;;19.60;79.00;;;;;;5050000;28;20025;-69
2021/08/11 09:26:17;;;;;;;6.20;3.63;;;19.80;79.00;;;;;;5047445;28;20112;-69
2021/08/11 09:28:45;;;;;;;6.63;3.15;;;20.30;79.20;;;;;;5049835;28;20598;-69
2021/08/11 09:31:24;;;;;;;5.55;2.75;;;20.30;77.20;;;;;;5049390;28;20128;-69
2021/08/11 09:33:56;;;;;;;5.43;3.05;;;20.10;76.20;;;;;;5040141;28;20044;-69
2021/08/11 09:36:22;;;;;;;10.88;3.72;;;19.70;75.90;;;;;;5049574;28;20109;-70
2021/08/11 09:38:59;;;;;;;6.93;3.05;;;19.80;77.50;;;;;;5049644;28;20399;-69
2021/08/11 09:41:25;;;;;;;6.13;2.88;;;20.20;77.50;;;;;;5031190;28;22215;-70
2021/08/11 09:44:08;;;;;;;7.32;3.90;;;20.20;79.00;;;;;;5045910;28;20445;-69
2021/08/11 09:46:34;;;;;;;6.18;3.55;;;19.80;76.30;;;;;;5046057;28;20942;-69
2021/08/11 09:49:00;;;;;;;8.10;3.42;;;19.60;77.40;;;;;;5045850;28;20097;-70
2021/08/11 09:51:26;;;;;;;8.52;3.67;;;19.60;79.50;;;;;;5045988;28;20503;-70
2021/08/11 09:53:52;;;;;;;7.18;3.58;;;19.70;79.10;;;;;;5029386;28;20033;-69
2021/08/11 09:56:17;;;;;;;6.65;3.47;;;19.70;78.60;;;;;;5045676;28;20065;-69
2021/08/11 09:58:46;;;;;;;5.68;3.50;;;19.50;77.20;;;;;;5046040;28;20271;-69
2021/08/11 10:01:12;;;;;;;9.65;3.15;;;19.50;78.80;;;;;;5043977;28;20401;-69
2021/08/11 10:04:08;;;;;;;7.68;3.25;;;19.30;78.10;;;;;;5045379;28;20069;-70
2021/08/11 10:06:35;;;;;;;6.15;3.00;;;19.70;77.40;;;;;;5029173;28;20112;-69
2021/08/11 10:09:21;;;;;;;7.28;3.60;;;19.90;76.20;;;;;;5029739;28;20029;-70
2021/08/11 10:11:51;;;;;;;8.13;3.72;;;20.30;74.70;;;;;;5045452;28;20075;-69
2021/08/11 10:14:21;;;;;;;6.18;3.50;;;20.70;74.90;;;;;;5046162;28;20435;-69
2021/08/11 10:16:48;;;;;;;6.17;2.93;;;20.80;73.10;;;;;;5042128;28;20112;-69
2021/08/11 10:19:14;;;;;;;8.15;3.03;;;20.60;73.90;;;;;;5026927;28;20046;-69
2021/08/11 10:21:53;;;;;;;6.47;2.80;;;20.70;73.80;;;;;;5045438;28;20472;-70
2021/08/11 10:24:19;;;;;;;6.38;3.03;;;20.90;72.40;;;;;;5044821;28;20090;-70
2021/08/11 10:26:48;;;;;;;9.18;3.13;;;20.80;73.10;;;;;;5024117;28;20295;-69
2021/08/11 10:29:16;;;;;;;9.02;3.53;;;21.00;73.30;;;;;;5043335;28;20055;-70
2021/08/11 10:31:42;;;;;;;9.70;3.08;;;21.20;72.30;;;;;;5044966;28;20606;-69
2021/08/11 10:34:10;;;;;;;11.02;3.88;;;21.20;70.30;;;;;;5046531;28;20037;-69
2021/08/11 10:36:40;;;;;;;9.27;3.60;;;21.50;70.90;;;;;;5044479;28;20041;-70
2021/08/11 10:39:05;;;;;;;9.57;3.58;;;21.40;68.60;;;;;;5045959;28;20028;-70
2021/08/11 10:41:33;;;;;;;5.10;2.63;;;21.70;69.20;;;;;;5045215;28;20029;-70
2021/08/11 10:44:01;;;;;;;5.22;2.95;;;21.50;68.90;;;;;;5045023;28;20048;-69
2021/08/11 10:46:44;;;;;;;7.45;2.88;;;21.20;69.80;;;;;;5045079;28;20029;-69
2021/08/11 10:49:16;;;;;;;6.38;2.97;;;20.90;69.50;;;;;;5045714;28;20195;-69
2021/08/11 10:51:47;;;;;;;5.85;2.83;;;20.70;70.40;;;;;;5045557;28;20036;-69
2021/08/11 10:54:13;;;;;;;;;;;20.60;72.90;;;;;;5045679;28;20097;-69
2021/08/11 10:56:44;;;;;;;7.65;3.13;;;20.50;72.70;;;;;;5044372;28;19964;-69
2021/08/11 10:59:32;;;;;;;6.65;3.08;;;20.30;72.60;;;;;;5030608;28;20086;-69
2021/08/11 11:01:59;;;;;;;7.72;2.97;;;20.20;74.20;;;;;;5031588;28;20215;-70
2021/08/11 11:04:40;;;;;;;7.43;3.08;;;20.30;73.20;;;;;;5035696;28;20023;-69
2021/08/11 11:07:09;;;;;;;4.57;2.45;;;20.50;72.70;;;;;;5036696;28;20029;-70
2021/08/11 11:09:35;;;;;;;6.15;3.53;;;20.40;72.00;;;;;;5044530;28;20056;-69
2021/08/11 11:12:16;;;;;;;8.18;3.42;;;20.20;72.70;;;;;;5044802;28;20032;-69
2021/08/11 11:14:53;;;;;;;6.18;3.13;;;20.50;73.20;;;;;;5043689;28;20071;-70
2021/08/11 11:17:20;;;;;;;6.97;2.88;;;20.70;74.20;;;;;;5043386;28;20258;-70
2021/08/11 11:20:05;;;;;;;6.50;3.03;;;21.20;74.30;;;;;;5044960;28;20021;-69
2021/08/11 11:22:49;;;;;;;6.47;3.22;;;21.50;67.90;;;;;;5044156;28;20163;-69
2021/08/11 11:25:15;;;;;;;7.40;2.97;;;22.10;69.40;;;;;;5042888;28;20275;-70
2021/08/11 11:27:41;;;;;;;7.80;3.65;;;22.20;71.40;;;;;;5046325;28;20146;-69
2021/08/11 11:30:09;;;;;;;8.27;3.63;;;22.30;68.70;;;;;;5044455;28;20076;-69
2021/08/11 11:32:35;;;;;;;6.97;3.53;;;22.40;68.00;;;;;;5042982;28;20437;-70
2021/08/11 11:35:19;;;;;;;5.70;3.50;;;22.40;68.70;;;;;;5040766;28;20122;-70
2021/08/11 11:38:04;;;;;;;8.48;3.90;;;22.60;67.70;;;;;;5040660;28;20028;-70
2021/08/11 11:40:30;;;;;;;7.45;3.42;;;22.50;68.20;;;;;;5044288;28;20045;-69
2021/08/11 11:43:26;;;;;;;5.85;2.90;;;22.50;67.20;;;;;;5043825;28;20033;-70
2021/08/11 11:45:52;;;;;;;6.95;3.80;;;22.40;65.90;;;;;;5036359;28;20139;-70
2021/08/11 11:48:18;;;;;;;7.57;3.15;;;22.50;64.40;;;;;;5043985;28;20160;-70
2021/08/11 11:50:52;;;;;;;7.05;3.03;;;22.60;65.00;;;;;;5044278;28;20041;-69
2021/08/11 11:53:24;;;;;;;5.82;2.75;;;23.00;62.10;;;;;;5044230;28;20033;-70
2021/08/11 11:55:50;;;;;;;6.93;2.67;;;23.30;63.30;;;;;;5039752;28;20418;-70
2021/08/11 11:58:26;;;;;;;6.03;2.13;;;22.70;63.80;;;;;;5041451;28;20103;-70
2021/08/11 12:01:02;;;;;;;5.72;2.20;;;22.50;61.60;;;;;;5042180;28;20028;-70
2021/08/11 12:03:39;;;;;;;7.15;2.30;;;22.70;62.70;;;;;;5041626;28;20108;-70
2021/08/11 12:06:06;;;;;;;3.83;2.15;;;23.00;60.20;;;;;;5043421;28;20149;-70
2021/08/11 12:08:32;;;;;;;6.90;2.38;;;23.70;60.00;;;;;;5044407;28;20029;-70
2021/08/11 12:11:13;;;;;;;3.45;1.83;;;23.40;59.70;;;;;;5025897;28;20037;-70
2021/08/11 12:13:43;;;;;;;5.18;2.70;;;23.60;61.10;;;;;;5040562;28;20124;-70
2021/08/11 12:16:10;;;;;;;5.25;2.50;;;24.40;58.90;;;;;;5039241;28;20052;-70
2021/08/11 12:18:36;;;;;;;4.43;2.40;;;24.60;58.30;;;;;;5043731;28;20059;-70
2021/08/11 12:21:02;;;;;;;4.70;2.22;;;24.70;57.40;;;;;;5044500;28;20029;-70
2021/08/11 12:23:30;;;;;;;4.10;2.33;;;25.00;58.10;;;;;;5046498;28;20025;-71
2021/08/11 12:26:07;;;;;;;3.90;2.20;;;25.00;57.60;;;;;;5043629;28;20449;-70
2021/08/11 12:28:36;;;;;;;6.22;2.53;;;25.00;55.10;;;;;;5039857;28;20092;-69
2021/08/11 12:31:11;;;;;;;4.95;2.55;;;24.30;58.80;;;;;;5043749;28;20453;-70
2021/08/11 12:33:41;;;;;;;4.68;2.55;;;24.50;60.60;;;;;;5043860;28;20029;-70
2021/08/11 12:36:18;;;;;;;3.72;2.20;;;23.90;59.50;;;;;;5043701;28;20048;-69